createdAt,value
2022-09-23T00:01:27.293Z,64.35
2022-09-23T00:04:29.319Z,64.47
2022-09-23T00:07:44.253Z,66.03
2022-09-23T00:10:46.072Z,65.97
2022-09-23T00:14:04.257Z,66.68
2022-09-23T00:17:13.163Z,67.25
2022-09-23T00:20:21.251Z,67.84
2022-09-23T00:23:36.290Z,68.68
2022-09-23T00:26:51.307Z,69.31
2022-09-23T00:29:59.276Z,69.90
2022-09-23T00:33:14.541Z,70.16
2022-09-23T00:36:23.279Z,70.29
2022-09-23T00:39:32.003Z,70.22
2022-09-23T00:42:56.449Z,70.42
2022-09-23T00:45:58.350Z,70.92
2022-09-23T00:49:22.292Z,70.98
2022-09-23T00:52:31.534Z,71.28
2022-09-23T00:55:46.263Z,71.29
2022-09-23T00:58:54.944Z,71.12
2022-09-23T01:02:10.296Z,71.29
2022-09-23T01:05:12.747Z,71.27
2022-09-23T01:08:29.276Z,71.21
2022-09-23T01:11:42.488Z,71.08
2022-09-23T01:15:13.299Z,71.00
2022-09-23T01:18:49.287Z,71.07
2022-09-23T01:22:16.287Z,70.94
2022-09-23T01:25:52.099Z,71.06
2022-09-23T01:29:31.282Z,71.28
2022-09-23T01:33:04.279Z,71.23
2022-09-23T01:36:34.301Z,71.23
2022-09-23T01:40:06.336Z,71.21
2022-09-23T01:43:16.095Z,71.23
2022-09-23T01:46:42.296Z,71.22
2022-09-23T01:50:04.314Z,70.88
2022-09-23T01:53:19.687Z,70.91
2022-09-23T01:56:40.359Z,70.46
2022-09-23T01:59:57.344Z,70.57
2022-09-23T02:03:15.046Z,70.79
2022-09-23T02:06:35.308Z,70.88
2022-09-23T02:09:50.298Z,70.94
2022-09-23T02:13:03.480Z,71.04
2022-09-23T02:16:33.433Z,71.30
2022-09-23T02:19:44.504Z,72.10
2022-09-23T02:23:08.309Z,73.03
2022-09-23T02:26:18.745Z,73.20
2022-09-23T02:29:42.364Z,73.61
2022-09-23T02:33:13.306Z,73.54
2022-09-23T02:36:29.459Z,73.85
2022-09-23T02:40:01.307Z,73.79
2022-09-23T02:43:34.375Z,73.69
2022-09-23T02:46:36.969Z,73.86
2022-09-23T02:49:52.370Z,74.03
2022-09-23T02:53:01.176Z,73.94
2022-09-23T02:56:21.320Z,74.11
2022-09-23T02:59:30.618Z,74.03
2022-09-23T03:03:00.336Z,74.38
2022-09-23T03:06:32.308Z,74.52
2022-09-23T03:10:01.359Z,74.50
2022-09-23T03:13:36.945Z,74.93
2022-09-23T03:16:56.230Z,74.91
2022-09-23T03:20:19.336Z,74.92
2022-09-23T03:23:27.148Z,74.00
2022-09-23T03:26:45.327Z,73.92
2022-09-23T03:30:01.332Z,73.97
2022-09-23T03:33:08.099Z,73.89
2022-09-23T03:36:37.344Z,74.05
2022-09-23T03:39:47.892Z,74.48
2022-09-23T03:43:05.334Z,75.24
2022-09-23T03:46:14.065Z,75.42
2022-09-23T03:49:26.356Z,74.90
2022-09-23T03:52:41.340Z,74.66
2022-09-23T03:55:49.955Z,74.77
2022-09-23T03:58:58.338Z,74.94
2022-09-23T04:02:07.797Z,75.04
2022-09-23T04:05:18.347Z,75.14
2022-09-23T04:08:27.264Z,75.24
2022-09-23T04:11:42.338Z,75.46
2022-09-23T04:14:44.467Z,75.81
2022-09-23T04:17:59.352Z,75.89
2022-09-23T04:21:14.360Z,75.54
2022-09-23T04:24:17.266Z,75.78
2022-09-23T04:27:37.397Z,75.75
2022-09-23T04:30:41.372Z,75.92
2022-09-23T04:33:57.362Z,75.43
2022-09-23T04:37:12.636Z,75.56
2022-09-23T04:40:21.428Z,75.95
2022-09-23T04:43:36.366Z,76.15
2022-09-23T04:46:51.463Z,76.23
2022-09-23T04:50:00.046Z,76.09
2022-09-23T04:53:08.972Z,76.18
2022-09-23T04:56:34.379Z,76.06
2022-09-23T04:59:36.224Z,75.97
2022-09-23T05:02:53.381Z,75.81
2022-09-23T05:06:05.428Z,76.43
2022-09-23T05:09:23.357Z,76.45
2022-09-23T05:12:32.268Z,75.41
2022-09-23T05:15:40.398Z,75.31
2022-09-23T05:18:50.453Z,75.25
2022-09-23T05:22:05.405Z,75.15
2022-09-23T05:25:07.511Z,74.87
2022-09-23T05:28:22.387Z,74.81
2022-09-23T05:31:38.485Z,74.50
2022-09-23T05:34:53.594Z,74.32
2022-09-23T05:38:08.436Z,74.07
2022-09-23T05:41:13.171Z,73.58
2022-09-23T05:44:28.396Z,73.38
2022-09-23T05:47:43.445Z,73.19
2022-09-23T05:50:52.783Z,72.69
2022-09-23T05:54:08.485Z,73.09
2022-09-23T05:57:17.096Z,73.36
2022-09-23T06:00:25.471Z,72.70
2022-09-23T06:03:34.072Z,72.04
2022-09-23T06:06:45.400Z,71.96
2022-09-23T06:09:54.047Z,71.65
2022-09-23T06:13:08.459Z,71.34
2022-09-23T06:16:13.287Z,70.91
2022-09-23T06:19:28.444Z,70.41
2022-09-23T06:22:43.434Z,70.24
2022-09-23T06:25:51.466Z,69.90
2022-09-23T06:29:01.595Z,69.46
2022-09-23T06:32:10.461Z,69.28
2022-09-23T06:35:33.510Z,68.93
2022-09-23T06:38:42.973Z,68.42
2022-09-23T06:41:51.443Z,68.41
2022-09-23T06:45:00.068Z,68.28
2022-09-23T06:48:14.402Z,68.32
2022-09-23T06:51:23.472Z,67.76
2022-09-23T06:54:41.404Z,67.25
2022-09-23T06:57:49.463Z,66.81
2022-09-23T07:01:15.548Z,66.62
2022-09-23T07:04:29.131Z,66.21
2022-09-23T07:07:37.502Z,66.44
2022-09-23T07:10:58.487Z,65.94
2022-09-23T07:14:13.672Z,65.04
2022-09-23T07:17:22.463Z,64.89
2022-09-23T07:20:32.364Z,64.09
2022-09-23T07:23:49.432Z,64.03
2022-09-23T07:27:01.663Z,63.64
2022-09-23T07:30:24.447Z,63.47
2022-09-23T07:33:48.491Z,62.96
2022-09-23T07:37:03.483Z,62.74
2022-09-23T07:40:13.188Z,63.35
2022-09-23T07:43:21.447Z,62.80
2022-09-23T07:46:39.477Z,62.98
2022-09-23T07:49:48.163Z,63.06
2022-09-23T07:52:56.443Z,61.96
2022-09-23T07:56:12.566Z,61.46
2022-09-23T07:59:34.476Z,61.18
2022-09-23T08:02:43.058Z,60.70
2022-09-23T08:05:57.537Z,60.96
2022-09-23T08:09:12.520Z,61.29
2022-09-23T08:12:24.496Z,60.12
2022-09-23T08:15:33.162Z,60.16
2022-09-23T08:18:41.713Z,59.84
2022-09-23T08:21:57.509Z,59.89
2022-09-23T08:25:13.704Z,59.77
2022-09-23T08:28:22.108Z,59.47
2022-09-23T08:31:30.476Z,58.96
2022-09-23T08:34:39.199Z,59.15
2022-09-23T08:38:00.516Z,58.67
2022-09-23T08:41:32.487Z,58.55
2022-09-23T08:44:55.469Z,58.49
2022-09-23T08:48:17.480Z,58.49
2022-09-23T08:51:40.471Z,58.09
2022-09-23T08:54:42.351Z,58.51
2022-09-23T08:58:26.833Z,57.92
2022-09-23T09:01:41.464Z,57.79
2022-09-23T09:05:01.492Z,57.64
2022-09-23T09:08:12.227Z,57.34
2022-09-23T09:11:22.508Z,57.01
2022-09-23T09:14:46.542Z,56.92
2022-09-23T09:18:16.554Z,57.92
2022-09-23T09:21:40.564Z,58.41
2022-09-23T09:24:49.448Z,58.51
2022-09-23T09:27:59.584Z,58.88
2022-09-23T09:31:30.610Z,58.20
2022-09-23T09:35:02.501Z,58.77
2022-09-23T09:38:17.591Z,58.15
2022-09-23T09:41:34.606Z,56.96
2022-09-23T09:44:42.381Z,57.30
2022-09-23T09:48:12.544Z,56.89
2022-09-23T09:51:31.508Z,55.67
2022-09-23T09:54:40.488Z,55.33
2022-09-23T09:57:59.396Z,54.85
2022-09-23T10:01:14.534Z,54.35
2022-09-23T10:04:29.561Z,53.95
2022-09-23T10:07:38.202Z,53.88
2022-09-23T10:10:57.541Z,53.35
2022-09-23T10:14:20.464Z,51.73
2022-09-23T10:17:40.476Z,50.94
2022-09-23T10:20:42.440Z,50.41
2022-09-23T10:24:01.507Z,51.75
2022-09-23T10:27:17.566Z,51.51
2022-09-23T10:30:23.053Z,50.23
2022-09-23T10:33:56.517Z,49.59
2022-09-23T10:37:21.541Z,48.25
2022-09-23T10:40:33.604Z,47.85
2022-09-23T10:44:14.524Z,48.15
2022-09-23T10:47:48.549Z,47.47
2022-09-23T10:50:53.210Z,47.29
2022-09-23T10:54:27.496Z,46.97
2022-09-23T10:57:59.364Z,47.35
2022-09-23T11:01:37.560Z,48.57
2022-09-23T11:05:07.574Z,48.28
2022-09-23T11:08:33.805Z,49.20
2022-09-23T11:12:06.560Z,48.71
2022-09-23T11:15:32.492Z,48.72
2022-09-23T11:19:00.415Z,48.36
2022-09-23T11:22:31.797Z,35.87
2022-09-23T11:25:57.556Z,28.76
2022-09-23T11:29:24.204Z,26.44
2022-09-23T11:32:52.589Z,29.21
2022-09-23T11:36:24.568Z,31.09
2022-09-23T11:39:41.609Z,31.27
2022-09-23T11:43:03.635Z,29.80
2022-09-23T11:46:38.548Z,27.54
2022-09-23T11:49:55.416Z,29.57
2022-09-23T11:53:13.562Z,26.45
2022-09-23T11:56:34.769Z,31.03
2022-09-23T11:59:58.583Z,28.19
2022-09-23T12:03:16.221Z,23.35
2022-09-23T12:06:40.576Z,21.63
2022-09-23T12:10:01.440Z,24.09
2022-09-23T12:13:25.657Z,21.23
2022-09-23T12:16:58.807Z,21.71
2022-09-23T12:20:24.610Z,22.09
2022-09-23T12:23:59.688Z,21.87
2022-09-23T12:27:22.701Z,23.21
2022-09-23T12:30:30.062Z,24.33
2022-09-23T12:33:45.609Z,28.02
2022-09-23T12:37:00.663Z,31.16
2022-09-23T12:40:20.781Z,34.26
2022-09-23T12:43:38.676Z,35.92
2022-09-23T12:46:53.760Z,35.01
2022-09-23T12:49:56.408Z,36.01
2022-09-23T12:53:31.632Z,36.16
2022-09-23T12:57:00.695Z,37.20
2022-09-23T13:00:34.265Z,36.99
2022-09-23T13:04:00.683Z,38.02
2022-09-23T13:07:08.126Z,39.06
2022-09-23T13:10:34.614Z,40.45
2022-09-23T13:13:52.695Z,41.29
2022-09-23T13:16:56.448Z,41.59
2022-09-23T13:20:33.645Z,41.08
2022-09-23T13:23:42.940Z,41.02
2022-09-23T13:26:56.380Z,40.87
2022-09-23T13:30:08.713Z,41.44
2022-09-23T13:33:25.638Z,41.21
2022-09-23T13:36:53.639Z,41.75
2022-09-23T13:40:10.427Z,42.19
2022-09-23T13:43:31.620Z,41.13
2022-09-23T13:46:52.643Z,41.25
2022-09-23T13:49:54.720Z,41.75
2022-09-23T13:53:16.701Z,41.93
2022-09-23T13:56:18.835Z,41.98
2022-09-23T13:59:37.704Z,40.84
2022-09-23T14:02:46.496Z,40.92
2022-09-23T14:05:55.778Z,40.82
2022-09-23T14:09:06.412Z,40.78
2022-09-23T14:12:21.653Z,41.15
2022-09-23T14:15:24.083Z,42.58
2022-09-23T14:18:43.721Z,41.88
2022-09-23T14:21:50.876Z,41.73
2022-09-23T14:25:06.729Z,42.42
2022-09-23T14:28:18.631Z,42.68
2022-09-23T14:31:26.770Z,42.68
2022-09-23T14:34:55.748Z,42.72
2022-09-23T14:38:11.159Z,41.67
2022-09-23T14:41:25.694Z,41.81
2022-09-23T14:44:34.716Z,41.92
2022-09-23T14:47:54.720Z,41.96
2022-09-23T14:51:06.706Z,41.86
2022-09-23T14:54:35.377Z,41.92
2022-09-23T14:57:45.701Z,41.66
2022-09-23T15:00:58.369Z,42.02
2022-09-23T15:04:19.775Z,42.62
2022-09-23T15:07:28.569Z,42.23
2022-09-23T15:10:46.728Z,41.67
2022-09-23T15:14:14.042Z,41.32
2022-09-23T15:17:34.563Z,41.34
2022-09-23T15:20:56.791Z,41.57
2022-09-23T15:23:58.734Z,41.23
2022-09-23T15:27:33.780Z,40.76
2022-09-23T15:30:36.860Z,40.91
2022-09-23T15:33:53.717Z,41.15
2022-09-23T15:37:11.562Z,40.64
2022-09-23T15:40:31.781Z,41.00
2022-09-23T15:43:41.100Z,41.28
2022-09-23T15:46:57.691Z,41.38
2022-09-23T15:50:05.723Z,41.24
2022-09-23T15:53:17.355Z,41.29
2022-09-23T15:56:25.741Z,41.91
2022-09-23T15:59:40.739Z,41.76
2022-09-23T16:02:56.881Z,42.37
2022-09-23T16:06:01.325Z,42.19
2022-09-23T16:09:15.739Z,42.40
2022-09-23T16:12:23.747Z,42.91
2022-09-23T16:15:33.054Z,43.73
2022-09-23T16:18:41.825Z,43.24
2022-09-23T16:21:56.752Z,43.37
2022-09-23T16:25:12.778Z,44.13
2022-09-23T16:28:20.898Z,43.80
2022-09-23T16:31:35.849Z,44.29
2022-09-23T16:34:57.791Z,43.95
2022-09-23T16:38:12.731Z,44.51
2022-09-23T16:41:21.781Z,44.40
2022-09-23T16:44:36.831Z,44.75
2022-09-23T16:47:43.159Z,44.77
2022-09-23T16:50:57.845Z,44.48
2022-09-23T16:54:06.768Z,44.97
2022-09-23T16:57:21.890Z,45.30
2022-09-23T17:00:30.604Z,45.97
2022-09-23T17:03:38.849Z,46.53
2022-09-23T17:06:56.869Z,46.83
2022-09-23T17:10:04.829Z,46.96
2022-09-23T17:13:13.371Z,47.19
2022-09-23T17:16:33.888Z,47.36
2022-09-23T17:19:44.768Z,47.82
2022-09-23T17:22:59.824Z,47.75
2022-09-23T17:26:15.009Z,48.41
2022-09-23T17:29:16.905Z,49.12
2022-09-23T17:32:33.797Z,49.66
2022-09-23T17:35:55.784Z,50.21
2022-09-23T17:39:10.836Z,49.90
2022-09-23T17:42:19.437Z,50.29
2022-09-23T17:45:27.865Z,50.73
2022-09-23T17:48:46.040Z,51.75
2022-09-23T17:52:00.812Z,52.32
2022-09-23T17:55:02.757Z,52.56
2022-09-23T17:58:17.829Z,53.10
2022-09-23T18:01:32.891Z,53.38
2022-09-23T18:04:40.851Z,53.78
2022-09-23T18:08:05.357Z,53.51
2022-09-23T18:11:21.126Z,53.88
2022-09-23T18:14:29.815Z,54.37
2022-09-23T18:17:44.784Z,54.68
2022-09-23T18:20:46.692Z,54.73
2022-09-23T18:27:40.890Z,55.25
2022-09-23T18:30:53.308Z,55.43
2022-09-23T18:34:10.920Z,55.75
2022-09-23T18:37:33.073Z,56.06
2022-09-23T18:40:41.952Z,56.24
2022-09-23T18:43:50.596Z,56.52
2022-09-23T18:47:04.886Z,56.58
2022-09-23T18:50:13.832Z,57.01
2022-09-23T18:53:28.888Z,57.13
2022-09-23T18:56:33.557Z,57.48
2022-09-23T18:59:48.841Z,57.58
2022-09-23T19:03:03.843Z,57.74
2022-09-23T19:06:21.068Z,57.92
2022-09-23T19:09:29.914Z,58.06
2022-09-23T19:12:44.875Z,57.94
2022-09-23T19:15:46.739Z,58.27
2022-09-23T19:19:01.847Z,58.49
2022-09-23T19:22:09.816Z,58.74
2022-09-23T19:25:18.448Z,59.26
2022-09-23T19:28:32.912Z,59.03
2022-09-23T19:31:37.780Z,59.22
2022-09-23T19:34:52.852Z,59.51
2022-09-23T19:38:14.883Z,59.65
2022-09-23T19:41:16.728Z,59.93
2022-09-23T19:44:33.868Z,60.04
2022-09-23T19:47:42.474Z,60.33
2022-09-23T19:50:53.894Z,60.45
2022-09-23T19:54:10.969Z,60.54
2022-09-23T19:57:19.922Z,61.11
2022-09-23T20:00:34.929Z,61.39
2022-09-23T20:03:44.452Z,61.34
2022-09-23T20:06:52.871Z,61.39
2022-09-23T20:10:01.413Z,61.60
2022-09-23T20:13:15.868Z,62.08
2022-09-23T20:16:19.603Z,62.08
2022-09-23T20:19:33.913Z,62.24
2022-09-23T20:22:36.200Z,62.39
2022-09-23T20:25:50.940Z,62.44
2022-09-23T20:28:59.388Z,62.84
2022-09-23T20:32:08.008Z,63.07
2022-09-23T20:35:29.899Z,63.59
2022-09-23T20:38:45.932Z,63.58
2022-09-23T20:41:53.915Z,63.59
2022-09-23T20:45:08.901Z,63.94
2022-09-23T20:48:16.891Z,63.78
2022-09-23T20:51:25.664Z,63.48
2022-09-23T20:54:39.883Z,63.61
2022-09-23T20:57:41.681Z,64.01
2022-09-23T21:00:55.924Z,64.07
2022-09-23T21:04:11.915Z,64.35
2022-09-23T21:07:19.903Z,64.38
2022-09-23T21:10:28.476Z,64.90
2022-09-23T21:13:37.921Z,64.77
2022-09-23T21:16:52.924Z,64.92
2022-09-23T21:20:07.928Z,64.56
2022-09-23T21:23:15.946Z,64.94
2022-09-23T21:26:25.760Z,65.04
2022-09-23T21:29:40.908Z,65.10
2022-09-23T21:32:42.692Z,65.11
2022-09-23T21:36:06.940Z,65.62
2022-09-23T21:39:21.916Z,65.40
2022-09-23T21:42:23.786Z,65.50
2022-09-23T21:45:38.884Z,66.32
2022-09-23T21:48:48.918Z,66.17
2022-09-23T21:52:03.936Z,66.37
2022-09-23T21:55:19.954Z,66.25
2022-09-23T21:58:21.921Z,66.20
2022-09-23T22:01:38.949Z,66.09
2022-09-23T22:04:54.921Z,66.31
2022-09-23T22:08:02.977Z,66.27
2022-09-23T22:11:13.928Z,66.58
2022-09-23T22:14:23.963Z,67.19
2022-09-23T22:17:38.916Z,66.59
2022-09-23T22:20:47.591Z,66.58
2022-09-23T22:23:58.920Z,66.35
2022-09-23T22:27:16.040Z,66.22
2022-09-23T22:30:23.949Z,66.25
2022-09-23T22:33:38.944Z,65.71
2022-09-23T22:37:03.939Z,65.97
2022-09-23T22:40:21.052Z,65.47
2022-09-23T22:43:35.947Z,65.68
2022-09-23T22:46:52.039Z,65.50
2022-09-23T22:49:54.224Z,65.57
2022-09-23T22:53:08.962Z,65.73
2022-09-23T22:56:18.008Z,65.74
2022-09-23T22:59:25.945Z,66.09
2022-09-23T23:02:40.947Z,65.54
2022-09-23T23:05:48.961Z,65.43
2022-09-23T23:08:57.507Z,65.47
2022-09-23T23:12:12.035Z,65.03
2022-09-23T23:15:13.768Z,64.40
2022-09-23T23:18:28.953Z,64.57
2022-09-23T23:21:37.978Z,64.57
2022-09-23T23:24:52.975Z,64.54
2022-09-23T23:28:07.962Z,64.79
2022-09-23T23:31:11.932Z,65.31
2022-09-23T23:34:28.013Z,65.84
2022-09-23T23:37:43.305Z,65.69
2022-09-23T23:40:52.011Z,65.97
2022-09-23T23:44:08.028Z,66.28
2022-09-23T23:47:23.054Z,66.47
2022-09-23T23:50:31.046Z,66.80
2022-09-23T23:53:41.262Z,67.24
2022-09-23T23:56:49.945Z,66.54
2022-09-23T23:59:58.594Z,66.20
